sensor_id;sensor_type;location;lat;lon;timestamp;P1;P2;P0
62631;PMS5003;48703;51.248;-0.546;2022-11-04T00:01:40;9.36;8.42;
62631;PMS5003;48703;51.248;-0.546;2022-11-04T00:04:41;8.97;8.14;
62631;PMS5003;48703;51.248;-0.546;2022-11-04T00:07:43;8.99;7.76;
62631;PMS5003;48703;51.248;-0.546;2022-11-04T00:10:44;8.97;8.61;
62631;PMS5003;48703;51.248;-0.546;2022-11-04T00:13:46;12.84;9.59;
62631;PMS5003;48703;51.248;-0.546;2022-11-04T00:16:47;10.61;9.89;
62631;PMS5003;48703;51.248;-0.546;2022-11-04T00:19:49;11.40;10.47;
62631;PMS5003;48703;51.248;-0.546;2022-11-04T00:22:50;12.24;10.90;
62631;PMS5003;48703;51.248;-0.546;2022-11-04T00:25:51;10.10;9.93;
62631;PMS5003;48703;51.248;-0.546;2022-11-04T00:28:53;12.47;10.89;
62631;PMS5003;48703;51.248;-0.546;2022-11-04T00:31:55;10.79;10.64;
62631;PMS5003;48703;51.248;-0.546;2022-11-04T00:34:56;11.87;11.20;
62631;PMS5003;48703;51.248;-0.546;2022-11-04T00:37:58;12.01;11.14;
62631;PMS5003;48703;51.248;-0.546;2022-11-04T00:40:59;11.46;11.28;
62631;PMS5003;48703;51.248;-0.546;2022-11-04T00:44:02;10.70;9.40;
62631;PMS5003;48703;51.248;-0.546;2022-11-04T00:47:02;11.53;10.33;
62631;PMS5003;48703;51.248;-0.546;2022-11-04T00:50:04;12.42;11.07;
62631;PMS5003;48703;51.248;-0.546;2022-11-04T00:53:05;10.04;9.19;
62631;PMS5003;48703;51.248;-0.546;2022-11-04T00:56:07;10.07;8.93;
62631;PMS5003;48703;51.248;-0.546;2022-11-04T00:59:09;9.64;9.30;
62631;PMS5003;48703;51.248;-0.546;2022-11-04T01:02:11;10.41;9.94;
62631;PMS5003;48703;51.248;-0.546;2022-11-04T01:05:12;10.73;10.21;
62631;PMS5003;48703;51.248;-0.546;2022-11-04T01:08:14;12.71;11.69;
62631;PMS5003;48703;51.248;-0.546;2022-11-04T01:11:15;14.44;13.94;
62631;PMS5003;48703;51.248;-0.546;2022-11-04T01:14:17;15.60;14.46;
62631;PMS5003;48703;51.248;-0.546;2022-11-04T01:17:18;16.94;15.84;
62631;PMS5003;48703;51.248;-0.546;2022-11-04T01:20:19;16.39;15.17;
62631;PMS5003;48703;51.248;-0.546;2022-11-04T01:23:20;16.57;15.26;
62631;PMS5003;48703;51.248;-0.546;2022-11-04T01:26:23;15.49;14.16;
62631;PMS5003;48703;51.248;-0.546;2022-11-04T01:29:24;16.09;15.31;
62631;PMS5003;48703;51.248;-0.546;2022-11-04T01:32:26;15.49;14.54;
62631;PMS5003;48703;51.248;-0.546;2022-11-04T01:35:28;17.99;17.29;
62631;PMS5003;48703;51.248;-0.546;2022-11-04T01:38:29;20.19;18.68;
62631;PMS5003;48703;51.248;-0.546;2022-11-04T01:41:31;20.66;19.10;
62631;PMS5003;48703;51.248;-0.546;2022-11-04T01:43:43;19.86;17.69;
62631;PMS5003;48703;51.248;-0.546;2022-11-04T01:46:36;21.83;20.69;
62631;PMS5003;48703;51.248;-0.546;2022-11-04T01:49:36;24.04;21.96;
62631;PMS5003;48703;51.248;-0.546;2022-11-04T01:52:39;22.46;20.09;
62631;PMS5003;48703;51.248;-0.546;2022-11-04T01:55:40;22.94;20.91;
62631;PMS5003;48703;51.248;-0.546;2022-11-04T01:58:42;25.07;22.72;
62631;PMS5003;48703;51.248;-0.546;2022-11-04T02:01:43;22.22;20.72;
62631;PMS5003;48703;51.248;-0.546;2022-11-04T02:04:44;22.64;21.14;
62631;PMS5003;48703;51.248;-0.546;2022-11-04T02:07:46;21.47;19.49;
62631;PMS5003;48703;51.248;-0.546;2022-11-04T02:10:51;23.74;20.39;
62631;PMS5003;48703;51.248;-0.546;2022-11-04T02:13:49;19.77;17.63;
62631;PMS5003;48703;51.248;-0.546;2022-11-04T02:16:51;20.66;18.89;
62631;PMS5003;48703;51.248;-0.546;2022-11-04T02:19:59;20.84;18.40;
62631;PMS5003;48703;51.248;-0.546;2022-11-04T02:23:11;20.90;19.46;
62631;PMS5003;48703;51.248;-0.546;2022-11-04T02:26:12;19.41;18.35;
62631;PMS5003;48703;51.248;-0.546;2022-11-04T02:29:17;21.52;19.81;
62631;PMS5003;48703;51.248;-0.546;2022-11-04T02:32:02;17.78;17.07;
62631;PMS5003;48703;51.248;-0.546;2022-11-04T02:35:00;19.88;17.96;
62631;PMS5003;48703;51.248;-0.546;2022-11-04T02:38:01;21.48;18.62;
62631;PMS5003;48703;51.248;-0.546;2022-11-04T02:41:05;20.48;18.77;
62631;PMS5003;48703;51.248;-0.546;2022-11-04T02:44:06;20.10;17.99;
62631;PMS5003;48703;51.248;-0.546;2022-11-04T02:47:05;18.36;18.22;
62631;PMS5003;48703;51.248;-0.546;2022-11-04T02:50:07;16.16;15.39;
62631;PMS5003;48703;51.248;-0.546;2022-11-04T02:53:08;17.23;15.66;
62631;PMS5003;48703;51.248;-0.546;2022-11-04T02:56:09;19.01;16.55;
62631;PMS5003;48703;51.248;-0.546;2022-11-04T02:59:11;19.57;17.10;
62631;PMS5003;48703;51.248;-0.546;2022-11-04T03:02:13;16.86;15.11;
62631;PMS5003;48703;51.248;-0.546;2022-11-04T03:05:14;17.69;15.26;
62631;PMS5003;48703;51.248;-0.546;2022-11-04T03:08:17;15.70;15.39;
62631;PMS5003;48703;51.248;-0.546;2022-11-04T03:11:18;16.93;15.77;
62631;PMS5003;48703;51.248;-0.546;2022-11-04T03:14:19;16.54;16.19;
62631;PMS5003;48703;51.248;-0.546;2022-11-04T03:17:21;17.61;16.33;
62631;PMS5003;48703;51.248;-0.546;2022-11-04T03:20:22;19.37;17.39;
62631;PMS5003;48703;51.248;-0.546;2022-11-04T03:23:23;19.80;18.43;
62631;PMS5003;48703;51.248;-0.546;2022-11-04T03:26:26;18.61;17.14;
62631;PMS5003;48703;51.248;-0.546;2022-11-04T03:29:27;20.12;18.55;
62631;PMS5003;48703;51.248;-0.546;2022-11-04T03:32:29;21.07;19.33;
62631;PMS5003;48703;51.248;-0.546;2022-11-04T03:35:28;20.51;18.35;
62631;PMS5003;48703;51.248;-0.546;2022-11-04T03:38:29;20.84;19.77;
62631;PMS5003;48703;51.248;-0.546;2022-11-04T03:41:32;19.67;18.34;
62631;PMS5003;48703;51.248;-0.546;2022-11-04T03:44:32;21.10;19.31;
62631;PMS5003;48703;51.248;-0.546;2022-11-04T03:47:34;20.04;17.20;
62631;PMS5003;48703;51.248;-0.546;2022-11-04T03:50:39;23.01;20.42;
62631;PMS5003;48703;51.248;-0.546;2022-11-04T03:53:36;22.53;18.87;
62631;PMS5003;48703;51.248;-0.546;2022-11-04T03:56:44;20.19;18.25;
62631;PMS5003;48703;51.248;-0.546;2022-11-04T03:59:46;20.34;18.69;
62631;PMS5003;48703;51.248;-0.546;2022-11-04T04:02:52;18.59;17.01;
62631;PMS5003;48703;51.248;-0.546;2022-11-04T04:05:44;19.45;19.10;
62631;PMS5003;48703;51.248;-0.546;2022-11-04T04:08:45;18.96;16.94;
62631;PMS5003;48703;51.248;-0.546;2022-11-04T04:11:49;17.17;15.91;
62631;PMS5003;48703;51.248;-0.546;2022-11-04T04:14:49;17.86;15.84;
62631;PMS5003;48703;51.248;-0.546;2022-11-04T04:17:49;18.57;17.43;
62631;PMS5003;48703;51.248;-0.546;2022-11-04T04:20:50;18.75;17.06;
62631;PMS5003;48703;51.248;-0.546;2022-11-04T04:23:51;20.47;18.24;
62631;PMS5003;48703;51.248;-0.546;2022-11-04T04:26:53;20.09;17.70;
62631;PMS5003;48703;51.248;-0.546;2022-11-04T04:29:55;18.10;17.04;
62631;PMS5003;48703;51.248;-0.546;2022-11-04T04:32:56;18.81;17.26;
62631;PMS5003;48703;51.248;-0.546;2022-11-04T04:35:58;18.77;17.40;
62631;PMS5003;48703;51.248;-0.546;2022-11-04T04:39:01;19.10;16.91;
62631;PMS5003;48703;51.248;-0.546;2022-11-04T04:42:00;17.71;16.51;
62631;PMS5003;48703;51.248;-0.546;2022-11-04T04:45:02;17.97;15.99;
62631;PMS5003;48703;51.248;-0.546;2022-11-04T04:48:03;17.04;15.26;
62631;PMS5003;48703;51.248;-0.546;2022-11-04T04:51:04;17.97;16.73;
62631;PMS5003;48703;51.248;-0.546;2022-11-04T04:54:06;17.50;17.16;
62631;PMS5003;48703;51.248;-0.546;2022-11-04T04:57:07;16.73;15.09;
62631;PMS5003;48703;51.248;-0.546;2022-11-04T05:00:11;19.04;17.74;
62631;PMS5003;48703;51.248;-0.546;2022-11-04T05:03:11;17.57;15.40;
62631;PMS5003;48703;51.248;-0.546;2022-11-04T05:06:12;17.91;16.96;
62631;PMS5003;48703;51.248;-0.546;2022-11-04T05:09:13;18.68;16.67;
62631;PMS5003;48703;51.248;-0.546;2022-11-04T05:12:14;15.76;15.19;
62631;PMS5003;48703;51.248;-0.546;2022-11-04T05:15:16;16.81;16.01;
62631;PMS5003;48703;51.248;-0.546;2022-11-04T05:18:18;21.41;18.16;
62631;PMS5003;48703;51.248;-0.546;2022-11-04T05:21:19;17.36;15.94;
62631;PMS5003;48703;51.248;-0.546;2022-11-04T05:24:21;19.55;18.48;
62631;PMS5003;48703;51.248;-0.546;2022-11-04T05:27:23;18.23;16.56;
62631;PMS5003;48703;51.248;-0.546;2022-11-04T05:30:24;22.06;17.96;
62631;PMS5003;48703;51.248;-0.546;2022-11-04T05:33:25;20.13;18.41;
62631;PMS5003;48703;51.248;-0.546;2022-11-04T05:36:25;18.39;17.29;
62631;PMS5003;48703;51.248;-0.546;2022-11-04T05:39:26;19.01;17.78;
62631;PMS5003;48703;51.248;-0.546;2022-11-04T05:42:29;18.90;17.39;
62631;PMS5003;48703;51.248;-0.546;2022-11-04T05:45:30;21.40;17.23;
62631;PMS5003;48703;51.248;-0.546;2022-11-04T05:48:31;17.83;16.20;
62631;PMS5003;48703;51.248;-0.546;2022-11-04T05:51:33;21.46;19.19;
62631;PMS5003;48703;51.248;-0.546;2022-11-04T05:54:35;21.18;18.34;
62631;PMS5003;48703;51.248;-0.546;2022-11-04T05:57:35;21.06;18.33;
62631;PMS5003;48703;51.248;-0.546;2022-11-04T06:00:36;17.67;17.00;
62631;PMS5003;48703;51.248;-0.546;2022-11-04T06:03:38;19.37;16.27;
62631;PMS5003;48703;51.248;-0.546;2022-11-04T06:06:40;18.73;15.49;
62631;PMS5003;48703;51.248;-0.546;2022-11-04T06:09:41;19.90;18.70;
62631;PMS5003;48703;51.248;-0.546;2022-11-04T06:12:43;17.47;15.10;
62631;PMS5003;48703;51.248;-0.546;2022-11-04T06:15:44;19.29;16.71;
62631;PMS5003;48703;51.248;-0.546;2022-11-04T06:18:46;18.33;16.67;
62631;PMS5003;48703;51.248;-0.546;2022-11-04T06:21:47;19.54;17.90;
62631;PMS5003;48703;51.248;-0.546;2022-11-04T06:24:49;19.33;16.96;
62631;PMS5003;48703;51.248;-0.546;2022-11-04T06:27:51;20.17;16.80;
62631;PMS5003;48703;51.248;-0.546;2022-11-04T06:30:52;19.19;15.66;
62631;PMS5003;48703;51.248;-0.546;2022-11-04T06:33:54;19.52;18.48;
62631;PMS5003;48703;51.248;-0.546;2022-11-04T06:36:55;19.30;17.09;
62631;PMS5003;48703;51.248;-0.546;2022-11-04T06:39:56;18.84;16.96;
62631;PMS5003;48703;51.248;-0.546;2022-11-04T06:42:58;18.09;15.77;
62631;PMS5003;48703;51.248;-0.546;2022-11-04T06:46:00;18.09;16.37;
62631;PMS5003;48703;51.248;-0.546;2022-11-04T06:49:01;21.43;18.30;
62631;PMS5003;48703;51.248;-0.546;2022-11-04T06:52:02;20.30;17.79;
62631;PMS5003;48703;51.248;-0.546;2022-11-04T06:55:04;19.83;18.25;
62631;PMS5003;48703;51.248;-0.546;2022-11-04T06:58:05;19.39;18.89;
62631;PMS5003;48703;51.248;-0.546;2022-11-04T07:01:06;18.81;16.39;
62631;PMS5003;48703;51.248;-0.546;2022-11-04T07:04:08;20.61;19.10;
62631;PMS5003;48703;51.248;-0.546;2022-11-04T07:07:10;20.31;17.51;
62631;PMS5003;48703;51.248;-0.546;2022-11-04T07:10:11;18.43;17.45;
62631;PMS5003;48703;51.248;-0.546;2022-11-04T07:13:13;17.70;15.87;
62631;PMS5003;48703;51.248;-0.546;2022-11-04T07:16:14;18.80;17.06;
62631;PMS5003;48703;51.248;-0.546;2022-11-04T07:19:15;18.61;17.26;
62631;PMS5003;48703;51.248;-0.546;2022-11-04T07:22:17;16.60;16.41;
62631;PMS5003;48703;51.248;-0.546;2022-11-04T07:25:19;19.19;17.54;
62631;PMS5003;48703;51.248;-0.546;2022-11-04T07:28:21;16.19;15.10;
62631;PMS5003;48703;51.248;-0.546;2022-11-04T07:31:23;17.49;15.71;
62631;PMS5003;48703;51.248;-0.546;2022-11-04T07:34:25;15.43;13.89;
62631;PMS5003;48703;51.248;-0.546;2022-11-04T07:37:26;17.64;15.83;
62631;PMS5003;48703;51.248;-0.546;2022-11-04T07:40:28;15.73;14.69;
62631;PMS5003;48703;51.248;-0.546;2022-11-04T07:43:29;17.72;15.14;
62631;PMS5003;48703;51.248;-0.546;2022-11-04T07:46:31;15.89;14.34;
62631;PMS5003;48703;51.248;-0.546;2022-11-04T07:49:33;18.21;14.84;
62631;PMS5003;48703;51.248;-0.546;2022-11-04T07:52:33;16.78;15.04;
62631;PMS5003;48703;51.248;-0.546;2022-11-04T07:55:35;16.29;15.09;
62631;PMS5003;48703;51.248;-0.546;2022-11-04T07:58:36;16.88;14.72;
62631;PMS5003;48703;51.248;-0.546;2022-11-04T08:01:38;17.43;14.45;
62631;PMS5003;48703;51.248;-0.546;2022-11-04T08:04:40;15.79;14.73;
62631;PMS5003;48703;51.248;-0.546;2022-11-04T08:07:42;17.77;14.74;
62631;PMS5003;48703;51.248;-0.546;2022-11-04T08:10:43;15.99;14.27;
62631;PMS5003;48703;51.248;-0.546;2022-11-04T08:13:45;16.47;14.40;
62631;PMS5003;48703;51.248;-0.546;2022-11-04T08:16:49;18.79;16.03;
62631;PMS5003;48703;51.248;-0.546;2022-11-04T08:19:48;15.13;13.87;
62631;PMS5003;48703;51.248;-0.546;2022-11-04T08:22:50;15.64;14.71;
62631;PMS5003;48703;51.248;-0.546;2022-11-04T08:25:51;19.94;16.48;
62631;PMS5003;48703;51.248;-0.546;2022-11-04T08:28:52;17.33;16.74;
62631;PMS5003;48703;51.248;-0.546;2022-11-04T08:31:53;19.57;17.55;
62631;PMS5003;48703;51.248;-0.546;2022-11-04T08:34:55;17.14;15.27;
62631;PMS5003;48703;51.248;-0.546;2022-11-04T08:37:56;19.93;16.81;
62631;PMS5003;48703;51.248;-0.546;2022-11-04T08:40:58;14.26;13.67;
62631;PMS5003;48703;51.248;-0.546;2022-11-04T08:43:59;19.42;17.84;
62631;PMS5003;48703;51.248;-0.546;2022-11-04T08:47:00;20.16;18.09;
62631;PMS5003;48703;51.248;-0.546;2022-11-04T08:50:01;20.71;19.04;
62631;PMS5003;48703;51.248;-0.546;2022-11-04T08:53:03;19.80;16.47;
62631;PMS5003;48703;51.248;-0.546;2022-11-04T08:56:09;19.36;17.96;
62631;PMS5003;48703;51.248;-0.546;2022-11-04T08:59:06;21.13;17.94;
62631;PMS5003;48703;51.248;-0.546;2022-11-04T09:02:09;17.96;17.58;
62631;PMS5003;48703;51.248;-0.546;2022-11-04T09:05:09;20.34;17.26;
62631;PMS5003;48703;51.248;-0.546;2022-11-04T09:08:10;21.28;19.20;
62631;PMS5003;48703;51.248;-0.546;2022-11-04T09:11:12;21.52;18.70;
62631;PMS5003;48703;51.248;-0.546;2022-11-04T09:14:13;20.60;18.13;
62631;PMS5003;48703;51.248;-0.546;2022-11-04T09:17:14;23.64;20.87;
62631;PMS5003;48703;51.248;-0.546;2022-11-04T09:20:16;21.59;20.30;
62631;PMS5003;48703;51.248;-0.546;2022-11-04T09:23:17;23.25;21.94;
62631;PMS5003;48703;51.248;-0.546;2022-11-04T09:26:18;25.90;22.94;
62631;PMS5003;48703;51.248;-0.546;2022-11-04T09:29:19;23.47;21.04;
62631;PMS5003;48703;51.248;-0.546;2022-11-04T09:32:21;25.90;22.36;
62631;PMS5003;48703;51.248;-0.546;2022-11-04T09:35:22;24.68;23.30;
62631;PMS5003;48703;51.248;-0.546;2022-11-04T09:38:23;24.57;22.71;
62631;PMS5003;48703;51.248;-0.546;2022-11-04T09:41:33;26.30;24.54;
62631;PMS5003;48703;51.248;-0.546;2022-11-04T09:44:26;23.67;21.46;
62631;PMS5003;48703;51.248;-0.546;2022-11-04T09:47:28;22.24;20.09;
62631;PMS5003;48703;51.248;-0.546;2022-11-04T09:50:30;21.17;20.14;
62631;PMS5003;48703;51.248;-0.546;2022-11-04T09:53:33;23.16;20.87;
62631;PMS5003;48703;51.248;-0.546;2022-11-04T09:56:32;21.71;20.83;
62631;PMS5003;48703;51.248;-0.546;2022-11-04T09:59:33;22.81;21.09;
62631;PMS5003;48703;51.248;-0.546;2022-11-04T10:02:39;21.23;20.10;
62631;PMS5003;48703;51.248;-0.546;2022-11-04T10:05:39;22.52;21.70;
62631;PMS5003;48703;51.248;-0.546;2022-11-04T10:08:41;24.36;22.04;
62631;PMS5003;48703;51.248;-0.546;2022-11-04T10:11:40;24.06;20.84;
62631;PMS5003;48703;51.248;-0.546;2022-11-04T10:14:44;26.10;22.80;
62631;PMS5003;48703;51.248;-0.546;2022-11-04T10:17:45;25.90;21.51;
62631;PMS5003;48703;51.248;-0.546;2022-11-04T10:20:46;25.62;22.99;
62631;PMS5003;48703;51.248;-0.546;2022-11-04T10:23:44;31.86;28.77;
62631;PMS5003;48703;51.248;-0.546;2022-11-04T10:26:45;33.96;30.52;
62631;PMS5003;48703;51.248;-0.546;2022-11-04T10:29:47;34.38;30.81;
62631;PMS5003;48703;51.248;-0.546;2022-11-04T10:32:52;32.84;29.36;
62631;PMS5003;48703;51.248;-0.546;2022-11-04T10:35:48;27.96;26.00;
62631;PMS5003;48703;51.248;-0.546;2022-11-04T10:38:51;27.06;24.21;
62631;PMS5003;48703;51.248;-0.546;2022-11-04T10:41:52;23.65;21.25;
62631;PMS5003;48703;51.248;-0.546;2022-11-04T10:44:53;18.23;16.40;
62631;PMS5003;48703;51.248;-0.546;2022-11-04T10:47:56;20.41;16.89;
62631;PMS5003;48703;51.248;-0.546;2022-11-04T10:50:58;22.58;20.46;
62631;PMS5003;48703;51.248;-0.546;2022-11-04T10:53:59;18.26;15.99;
62631;PMS5003;48703;51.248;-0.546;2022-11-04T10:57:01;19.57;18.11;
62631;PMS5003;48703;51.248;-0.546;2022-11-04T11:00:03;20.55;17.45;
62631;PMS5003;48703;51.248;-0.546;2022-11-04T11:03:20;18.10;16.35;
62631;PMS5003;48703;51.248;-0.546;2022-11-04T11:06:10;15.27;13.81;
62631;PMS5003;48703;51.248;-0.546;2022-11-04T11:09:11;18.55;16.45;
62631;PMS5003;48703;51.248;-0.546;2022-11-04T11:12:16;14.40;13.44;
62631;PMS5003;48703;51.248;-0.546;2022-11-04T11:15:16;14.12;11.99;
62631;PMS5003;48703;51.248;-0.546;2022-11-04T11:18:13;12.31;11.30;
62631;PMS5003;48703;51.248;-0.546;2022-11-04T11:21:14;11.90;10.79;
62631;PMS5003;48703;51.248;-0.546;2022-11-04T11:24:18;13.60;11.94;
62631;PMS5003;48703;51.248;-0.546;2022-11-04T11:27:17;11.83;10.79;
62631;PMS5003;48703;51.248;-0.546;2022-11-04T11:30:19;12.33;11.16;
62631;PMS5003;48703;51.248;-0.546;2022-11-04T11:33:22;10.04;9.46;
62631;PMS5003;48703;51.248;-0.546;2022-11-04T11:36:22;12.00;10.61;
62631;PMS5003;48703;51.248;-0.546;2022-11-04T11:39:24;13.14;11.67;
62631;PMS5003;48703;51.248;-0.546;2022-11-04T11:42:24;11.10;10.97;
62631;PMS5003;48703;51.248;-0.546;2022-11-04T11:45:26;8.51;8.13;
62631;PMS5003;48703;51.248;-0.546;2022-11-04T11:48:29;10.67;8.79;
62631;PMS5003;48703;51.248;-0.546;2022-11-04T11:51:30;9.94;8.94;
62631;PMS5003;48703;51.248;-0.546;2022-11-04T11:54:32;9.76;7.56;
62631;PMS5003;48703;51.248;-0.546;2022-11-04T11:57:35;6.67;6.36;
62631;PMS5003;48703;51.248;-0.546;2022-11-04T12:00:36;8.03;6.46;
62631;PMS5003;48703;51.248;-0.546;2022-11-04T12:03:37;7.13;5.74;
62631;PMS5003;48703;51.248;-0.546;2022-11-04T12:06:40;8.47;6.50;
62631;PMS5003;48703;51.248;-0.546;2022-11-04T12:09:41;6.23;5.04;
62631;PMS5003;48703;51.248;-0.546;2022-11-04T12:12:46;6.54;5.56;
62631;PMS5003;48703;51.248;-0.546;2022-11-04T12:15:47;5.91;4.63;
62631;PMS5003;48703;51.248;-0.546;2022-11-04T12:18:51;4.01;3.50;
62631;PMS5003;48703;51.248;-0.546;2022-11-04T12:21:48;5.16;4.51;
62631;PMS5003;48703;51.248;-0.546;2022-11-04T12:24:50;4.39;4.07;
62631;PMS5003;48703;51.248;-0.546;2022-11-04T12:27:51;4.11;3.53;
62631;PMS5003;48703;51.248;-0.546;2022-11-04T12:30:55;4.60;3.91;
62631;PMS5003;48703;51.248;-0.546;2022-11-04T12:33:56;3.54;3.46;
62631;PMS5003;48703;51.248;-0.546;2022-11-04T12:36:59;4.60;4.01;
62631;PMS5003;48703;51.248;-0.546;2022-11-04T12:40:02;2.73;2.43;
62631;PMS5003;48703;51.248;-0.546;2022-11-04T12:43:02;4.24;3.00;
62631;PMS5003;48703;51.248;-0.546;2022-11-04T12:46:04;4.01;2.69;
62631;PMS5003;48703;51.248;-0.546;2022-11-04T12:49:06;4.19;3.54;
62631;PMS5003;48703;51.248;-0.546;2022-11-04T12:52:05;3.60;2.70;
62631;PMS5003;48703;51.248;-0.546;2022-11-04T12:55:13;2.41;2.40;
62631;PMS5003;48703;51.248;-0.546;2022-11-04T12:58:11;1.97;1.67;
62631;PMS5003;48703;51.248;-0.546;2022-11-04T13:01:09;2.97;2.36;
62631;PMS5003;48703;51.248;-0.546;2022-11-04T13:04:11;2.47;2.13;
62631;PMS5003;48703;51.248;-0.546;2022-11-04T13:07:12;1.89;1.40;
62631;PMS5003;48703;51.248;-0.546;2022-11-04T13:10:15;1.80;0.90;
62631;PMS5003;48703;51.248;-0.546;2022-11-04T13:13:15;2.14;2.14;
62631;PMS5003;48703;51.248;-0.546;2022-11-04T13:16:17;2.41;1.93;
62631;PMS5003;48703;51.248;-0.546;2022-11-04T13:19:20;2.61;2.14;
62631;PMS5003;48703;51.248;-0.546;2022-11-04T13:22:21;1.76;1.50;
62631;PMS5003;48703;51.248;-0.546;2022-11-04T13:25:23;3.90;3.11;
62631;PMS5003;48703;51.248;-0.546;2022-11-04T13:28:23;1.86;1.86;
62631;PMS5003;48703;51.248;-0.546;2022-11-04T13:31:27;1.86;1.86;
62631;PMS5003;48703;51.248;-0.546;2022-11-04T13:34:29;2.23;2.23;
62631;PMS5003;48703;51.248;-0.546;2022-11-04T13:37:29;4.54;3.56;
62631;PMS5003;48703;51.248;-0.546;2022-11-04T13:40:32;3.34;2.79;
62631;PMS5003;48703;51.248;-0.546;2022-11-04T13:43:31;3.23;2.06;
62631;PMS5003;48703;51.248;-0.546;2022-11-04T13:46:33;3.39;3.21;
62631;PMS5003;48703;51.248;-0.546;2022-11-04T13:49:34;2.07;2.07;
62631;PMS5003;48703;51.248;-0.546;2022-11-04T13:52:36;1.66;1.64;
62631;PMS5003;48703;51.248;-0.546;2022-11-04T13:55:46;3.04;1.49;
62631;PMS5003;48703;51.248;-0.546;2022-11-04T13:58:39;2.53;2.06;
62631;PMS5003;48703;51.248;-0.546;2022-11-04T14:01:41;2.09;1.91;
62631;PMS5003;48703;51.248;-0.546;2022-11-04T14:04:43;1.83;1.83;
62631;PMS5003;48703;51.248;-0.546;2022-11-04T14:08:16;1.73;1.56;
62631;PMS5003;48703;51.248;-0.546;2022-11-04T14:11:03;1.91;1.91;
62631;PMS5003;48703;51.248;-0.546;2022-11-04T14:14:07;1.43;0.94;
62631;PMS5003;48703;51.248;-0.546;2022-11-04T14:16:49;2.07;2.07;
62631;PMS5003;48703;51.248;-0.546;2022-11-04T14:19:55;2.66;1.86;
62631;PMS5003;48703;51.248;-0.546;2022-11-04T14:22:52;4.16;3.43;
62631;PMS5003;48703;51.248;-0.546;2022-11-04T14:25:57;2.36;2.36;
62631;PMS5003;48703;51.248;-0.546;2022-11-04T14:28:59;4.01;3.51;
62631;PMS5003;48703;51.248;-0.546;2022-11-04T14:31:57;2.71;2.39;
62631;PMS5003;48703;51.248;-0.546;2022-11-04T14:34:59;2.40;1.94;
62631;PMS5003;48703;51.248;-0.546;2022-11-04T14:38:03;2.39;2.23;
62631;PMS5003;48703;51.248;-0.546;2022-11-04T14:41:19;2.84;2.84;
62631;PMS5003;48703;51.248;-0.546;2022-11-04T14:44:06;2.26;1.44;
62631;PMS5003;48703;51.248;-0.546;2022-11-04T14:47:06;2.59;2.13;
62631;PMS5003;48703;51.248;-0.546;2022-11-04T14:50:13;3.13;2.20;
62631;PMS5003;48703;51.248;-0.546;2022-11-04T14:53:08;2.49;1.94;
62631;PMS5003;48703;51.248;-0.546;2022-11-04T14:56:13;3.16;2.03;
62631;PMS5003;48703;51.248;-0.546;2022-11-04T14:59:18;4.07;3.47;
62631;PMS5003;48703;51.248;-0.546;2022-11-04T15:02:14;4.36;3.59;
62631;PMS5003;48703;51.248;-0.546;2022-11-04T15:05:21;7.64;4.97;
62631;PMS5003;48703;51.248;-0.546;2022-11-04T15:08:24;4.88;3.88;
62631;PMS5003;48703;51.248;-0.546;2022-11-04T15:11:18;3.13;2.36;
62631;PMS5003;48703;51.248;-0.546;2022-11-04T15:14:20;2.94;2.21;
62631;PMS5003;48703;51.248;-0.546;2022-11-04T15:17:21;2.59;2.24;
62631;PMS5003;48703;51.248;-0.546;2022-11-04T15:20:22;4.13;2.83;
62631;PMS5003;48703;51.248;-0.546;2022-11-04T15:23:25;5.16;4.94;
62631;PMS5003;48703;51.248;-0.546;2022-11-04T15:26:25;8.43;7.60;
62631;PMS5003;48703;51.248;-0.546;2022-11-04T15:29:26;12.11;10.81;
62631;PMS5003;48703;51.248;-0.546;2022-11-04T15:32:28;11.16;10.94;
62631;PMS5003;48703;51.248;-0.546;2022-11-04T15:35:30;11.96;10.71;
62631;PMS5003;48703;51.248;-0.546;2022-11-04T15:38:31;11.72;10.30;
62631;PMS5003;48703;51.248;-0.546;2022-11-04T15:41:32;8.07;6.99;
62631;PMS5003;48703;51.248;-0.546;2022-11-04T15:44:34;6.59;5.33;
62631;PMS5003;48703;51.248;-0.546;2022-11-04T15:47:35;5.57;4.39;
62631;PMS5003;48703;51.248;-0.546;2022-11-04T15:50:37;9.30;7.36;
62631;PMS5003;48703;51.248;-0.546;2022-11-04T15:53:45;6.93;5.46;
62631;PMS5003;48703;51.248;-0.546;2022-11-04T15:56:41;6.17;5.74;
62631;PMS5003;48703;51.248;-0.546;2022-11-04T15:59:44;6.03;5.29;
62631;PMS5003;48703;51.248;-0.546;2022-11-04T16:02:44;5.71;5.71;
62631;PMS5003;48703;51.248;-0.546;2022-11-04T16:05:58;6.24;5.66;
62631;PMS5003;48703;51.248;-0.546;2022-11-04T16:08:58;6.13;5.46;
62631;PMS5003;48703;51.248;-0.546;2022-11-04T16:12:06;9.44;8.04;
62631;PMS5003;48703;51.248;-0.546;2022-11-04T16:14:51;10.60;8.63;
62631;PMS5003;48703;51.248;-0.546;2022-11-04T16:17:52;8.27;8.27;
62631;PMS5003;48703;51.248;-0.546;2022-11-04T16:20:53;8.67;7.50;
62631;PMS5003;48703;51.248;-0.546;2022-11-04T16:23:56;10.93;9.47;
62631;PMS5003;48703;51.248;-0.546;2022-11-04T16:26:56;8.66;8.66;
62631;PMS5003;48703;51.248;-0.546;2022-11-04T16:30:01;6.64;6.46;
62631;PMS5003;48703;51.248;-0.546;2022-11-04T16:33:06;8.20;7.56;
62631;PMS5003;48703;51.248;-0.546;2022-11-04T16:36:04;16.04;15.31;
62631;PMS5003;48703;51.248;-0.546;2022-11-04T16:39:03;16.66;16.47;
62631;PMS5003;48703;51.248;-0.546;2022-11-04T16:42:04;16.61;16.54;
62631;PMS5003;48703;51.248;-0.546;2022-11-04T16:45:06;16.67;16.43;
62631;PMS5003;48703;51.248;-0.546;2022-11-04T16:48:08;24.97;24.59;
62631;PMS5003;48703;51.248;-0.546;2022-11-04T16:51:09;30.25;28.55;
62631;PMS5003;48703;51.248;-0.546;2022-11-04T16:54:10;24.16;21.91;
62631;PMS5003;48703;51.248;-0.546;2022-11-04T16:57:11;22.39;20.29;
62631;PMS5003;48703;51.248;-0.546;2022-11-04T17:00:16;20.49;18.56;
62631;PMS5003;48703;51.248;-0.546;2022-11-04T17:03:14;22.48;19.23;
62631;PMS5003;48703;51.248;-0.546;2022-11-04T17:06:15;15.87;15.44;
62631;PMS5003;48703;51.248;-0.546;2022-11-04T17:09:18;16.06;14.26;
62631;PMS5003;48703;51.248;-0.546;2022-11-04T17:12:19;12.39;10.71;
62631;PMS5003;48703;51.248;-0.546;2022-11-04T17:15:20;8.57;8.57;
62631;PMS5003;48703;51.248;-0.546;2022-11-04T17:18:22;8.36;6.99;
62631;PMS5003;48703;51.248;-0.546;2022-11-04T17:21:23;8.20;7.91;
62631;PMS5003;48703;51.248;-0.546;2022-11-04T17:24:25;7.66;7.66;
62631;PMS5003;48703;51.248;-0.546;2022-11-04T17:27:27;8.73;7.87;
62631;PMS5003;48703;51.248;-0.546;2022-11-04T17:30:28;8.39;7.44;
62631;PMS5003;48703;51.248;-0.546;2022-11-04T17:33:30;9.39;7.57;
62631;PMS5003;48703;51.248;-0.546;2022-11-04T17:36:32;9.11;7.83;
62631;PMS5003;48703;51.248;-0.546;2022-11-04T17:39:33;11.76;10.79;
62631;PMS5003;48703;51.248;-0.546;2022-11-04T17:42:35;13.89;13.19;
62631;PMS5003;48703;51.248;-0.546;2022-11-04T17:45:37;14.49;13.04;
62631;PMS5003;48703;51.248;-0.546;2022-11-04T17:48:38;14.09;12.81;
62631;PMS5003;48703;51.248;-0.546;2022-11-04T17:51:40;13.17;12.87;
62631;PMS5003;48703;51.248;-0.546;2022-11-04T17:54:41;11.91;10.14;
62631;PMS5003;48703;51.248;-0.546;2022-11-04T17:57:43;9.14;7.63;
62631;PMS5003;48703;51.248;-0.546;2022-11-04T18:00:44;9.01;8.88;
62631;PMS5003;48703;51.248;-0.546;2022-11-04T18:03:45;8.16;8.16;
62631;PMS5003;48703;51.248;-0.546;2022-11-04T18:06:47;7.40;7.40;